Time;durP1;ratioP1;P1;durP2;ratioP2;P2;SDS_P1;SDS_P2;PMS_P1;PMS_P2;Temp;Humidity;BMP_temperature;BMP_pressure;BME280_temperature;BME280_humidity;BME280_pressure;Samples;Min_cycle;Max_cycle;Signal;HPM_P1;HPM_P2
2022/10/09 00:01:42;;;;;;;;;;;;;;;;;;5077468;28;19912;-69
2022/10/09 00:04:07;;;;;;;;;;;;;;;;;;5068263;28;19920;-69
2022/10/09 00:06:32;;;;;;;;;;;;;;;;;;5076596;28;20003;-67
2022/10/09 00:08:58;;;;;;;;;;;;;;;;;;5071655;28;19995;-69
2022/10/09 00:11:23;;;;;;;;;;;;;;;;;;5072293;28;20289;-68
2022/10/09 00:13:48;;;;;;;;;;;;;;;;;;5098096;28;20046;-69
2022/10/09 00:16:13;;;;;;;;;;;;;;;;;;5060936;28;19919;-67
2022/10/09 00:18:38;;;;;;;;;;;;;;;;;;5098436;28;20359;-68
2022/10/09 00:21:03;;;;;;;;;;;;;;;;;;5089115;28;19921;-68
2022/10/09 00:23:29;;;;;;;;;;;;;;;;;;5076541;28;20027;-68
2022/10/09 00:25:54;;;;;;;;;;;;;;;;;;5069875;28;19928;-68
2022/10/09 00:28:19;;;;;;;;;;;;;;;;;;5064726;28;19996;-69
2022/10/09 00:30:44;;;;;;;;;;;;;;;;;;5075432;28;19919;-68
2022/10/09 00:33:09;;;;;;;;;;;;;;;;;;5108579;28;19912;-67
2022/10/09 00:35:34;;;;;;;;;;;;;;;;;;5074080;28;19913;-68
2022/10/09 00:37:59;;;;;;;;;;;;;;;;;;5069579;28;19916;-67
2022/10/09 00:40:25;;;;;;;;;;;;;;;;;;5080400;28;19999;-67
2022/10/09 00:42:50;;;;;;;;;;;;;;;;;;5075461;28;19913;-67
2022/10/09 00:45:15;;;;;;;;;;;;;;;;;;5106631;28;19966;-68
2022/10/09 00:47:40;;;;;;;;;;;;;;;;;;5083820;28;19923;-67
2022/10/09 00:50:05;;;;;;;;;;;;;;;;;;5074190;28;19923;-69
2022/10/09 00:52:30;;;;;;;;;;;;;;;;;;5105562;28;19916;-67
2022/10/09 00:54:55;;;;;;;;;;;;;;;;;;5067337;28;19995;-67
2022/10/09 00:57:21;;;;;;;;;;;;;;;;;;5068312;28;19920;-69
2022/10/09 00:59:46;;;;;;;;;;;;;;;;;;5073487;28;20392;-69
2022/10/09 01:02:11;;;;;;;;;;;;;;;;;;5069129;28;20365;-68
2022/10/09 01:04:36;;;;;;;;;;;;;;;;;;5082174;28;20439;-68
2022/10/09 01:07:01;;;;;;;;;;;;;;;;;;5081323;28;20395;-67
2022/10/09 01:09:26;;;;;;;;;;;;;;;;;;5107478;28;19908;-68
2022/10/09 01:11:51;;;;;;;;;;;;;;;;;;5073483;28;20007;-67
2022/10/09 01:14:17;;;;;;;;;;;;;;;;;;5075266;28;20450;-68
2022/10/09 01:16:42;;;;;;;;;;;;;;;;;;5072436;28;20361;-68
2022/10/09 01:19:07;;;;;;;;;;;;;;;;;;5065092;28;19913;-68
2022/10/09 01:21:32;;;;;;;;;;;;;;;;;;5083992;28;19987;-68
2022/10/09 01:23:58;;;;;;;;;;;;;;;;;;5074024;28;19919;-69
2022/10/09 01:26:23;;;;;;;;;;;;;;;;;;5073866;28;19999;-68
2022/10/09 01:28:48;;;;;;;;;;;;;;;;;;5073230;28;19913;-69
2022/10/09 01:31:13;;;;;;;;;;;;;;;;;;5072397;28;19955;-66
2022/10/09 01:33:38;;;;;;;;;;;;;;;;;;5057783;28;20328;-69
2022/10/09 01:36:03;;;;;;;;;;;;;;;;;;5104031;27;20274;-67
2022/10/09 01:38:28;;;;;;;;;;;;;;;;;;5073188;28;19912;-68
2022/10/09 01:40:53;;;;;;;;;;;;;;;;;;5093726;28;19908;-67
2022/10/09 01:43:19;;;;;;;;;;;;;;;;;;5079567;28;19912;-68
2022/10/09 01:45:44;;;;;;;;;;;;;;;;;;5079906;28;19912;-68
2022/10/09 01:48:09;;;;;;;;;;;;;;;;;;5070365;28;19916;-67
2022/10/09 01:50:34;;;;;;;;;;;;;;;;;;5057926;28;20353;-68
2022/10/09 01:52:59;;;;;;;;;;;;;;;;;;5063771;28;19913;-68
2022/10/09 01:55:25;;;;;;;;;;;;;;;;;;5072462;28;19913;-68
2022/10/09 01:57:50;;;;;;;;;;;;;;;;;;5074717;28;19919;-67
2022/10/09 02:00:15;;;;;;;;;;;;;;;;;;5067573;28;20300;-67
2022/10/09 02:02:40;;;;;;;;;;;;;;;;;;5072748;28;20007;-68
2022/10/09 02:05:06;;;;;;;;;;;;;;;;;;5071551;28;19920;-68
2022/10/09 02:07:31;;;;;;;;;;;;;;;;;;5070996;28;19946;-68
2022/10/09 02:09:56;;;;;;;;;;;;;;;;;;5070080;28;19913;-68
2022/10/09 02:12:21;;;;;;;;;;;;;;;;;;5072647;28;19912;-68
2022/10/09 02:14:46;;;;;;;;;;;;;;;;;;5097760;28;19917;-68
2022/10/09 02:17:11;;;;;;;;;;;;;;;;;;5061582;28;19916;-67
2022/10/09 02:19:37;;;;;;;;;;;;;;;;;;5098928;28;19920;-68
2022/10/09 02:22:02;;;;;;;;;;;;;;;;;;5072037;28;19912;-66
2022/10/09 02:24:27;;;;;;;;;;;;;;;;;;5076300;28;20617;-68
2022/10/09 02:26:52;;;;;;;;;;;;;;;;;;5116261;27;20373;-67
2022/10/09 02:29:17;;;;;;;;;;;;;;;;;;5104832;28;20395;-68
2022/10/09 02:31:42;;;;;;;;;;;;;;;;;;5102787;27;20450;-68
2022/10/09 02:34:07;;;;;;;;;;;;;;;;;;5105390;28;20340;-68
2022/10/09 02:36:33;;;;;;;;;;;;;;;;;;5065618;28;19920;-68
2022/10/09 02:38:58;;;;;;;;;;;;;;;;;;5071832;28;19912;-68
2022/10/09 02:41:23;;;;;;;;;;;;;;;;;;5104765;27;20050;-67
2022/10/09 02:43:48;;;;;;;;;;;;;;;;;;5098975;28;19967;-68
2022/10/09 02:46:13;;;;;;;;;;;;;;;;;;5062940;28;19920;-68
2022/10/09 02:48:38;;;;;;;;;;;;;;;;;;5067412;28;19927;-69
2022/10/09 02:51:04;;;;;;;;;;;;;;;;;;5068207;28;20296;-68
2022/10/09 02:53:29;;;;;;;;;;;;;;;;;;5062696;28;20365;-67
2022/10/09 02:55:54;;;;;;;;;;;;;;;;;;5104674;28;19917;-68
2022/10/09 02:58:20;;;;;;;;;;;;;;;;;;5104952;27;19919;-68
2022/10/09 03:00:45;;;;;;;;;;;;;;;;;;5072758;28;19938;-68
2022/10/09 03:03:10;;;;;;;;;;;;;;;;;;5065001;28;19922;-67
2022/10/09 03:05:35;;;;;;;;;;;;;;;;;;5076777;28;19954;-67
2022/10/09 03:08:00;;;;;;;;;;;;;;;;;;5104444;28;19920;-67
2022/10/09 03:10:25;;;;;;;;;;;;;;;;;;5059528;28;19967;-67
2022/10/09 03:12:50;;;;;;;;;;;;;;;;;;5086213;28;19920;-67
2022/10/09 03:15:16;;;;;;;;;;;;;;;;;;5053460;28;19924;-67
2022/10/09 03:17:41;;;;;;;;;;;;;;;;;;5062705;28;20401;-67
2022/10/09 03:20:06;;;;;;;;;;;;;;;;;;5096486;28;19931;-67
2022/10/09 03:22:31;;;;;;;;;;;;;;;;;;5072409;28;19920;-67
2022/10/09 03:24:56;;;;;;;;;;;;;;;;;;5061792;28;19917;-68
2022/10/09 03:27:22;;;;;;;;;;;;;;;;;;5060094;28;19916;-67
2022/10/09 03:29:47;;;;;;;;;;;;;;;;;;5068584;28;19995;-68
2022/10/09 03:32:12;;;;;;;;;;;;;;;;;;5113431;27;19993;-67
2022/10/09 03:34:37;;;;;;;;;;;;;;;;;;5075059;28;19939;-68
2022/10/09 03:37:02;;;;;;;;;;;;;;;;;;5071078;28;20487;-67
2022/10/09 03:39:27;;;;;;;;;;;;;;;;;;5083832;28;19912;-68
2022/10/09 03:41:52;;;;;;;;;;;;;;;;;;5067042;28;19959;-67
2022/10/09 03:44:18;;;;;;;;;;;;;;;;;;5068997;28;19943;-68
2022/10/09 03:46:43;;;;;;;;;;;;;;;;;;5070558;28;19912;-67
2022/10/09 03:49:08;;;;;;;;;;;;;;;;;;5066857;28;19913;-68
2022/10/09 03:51:33;;;;;;;;;;;;;;;;;;5083606;28;19912;-68
2022/10/09 03:53:58;;;;;;;;;;;;;;;;;;5070832;28;20384;-68
2022/10/09 03:56:23;;;;;;;;;;;;;;;;;;5103646;28;19913;-68
2022/10/09 03:58:48;;;;;;;;;;;;;;;;;;5099890;28;19959;-68
2022/10/09 04:01:13;;;;;;;;;;;;;;;;;;5065114;28;19979;-67
2022/10/09 04:03:39;;;;;;;;;;;;;;;;;;5073832;28;20312;-68
2022/10/09 04:06:04;;;;;;;;;;;;;;;;;;5069712;28;20329;-67
2022/10/09 04:08:29;;;;;;;;;;;;;;;;;;5068993;28;20325;-68
2022/10/09 04:10:54;;;;;;;;;;;;;;;;;;5068992;28;19924;-68
2022/10/09 04:13:19;;;;;;;;;;;;;;;;;;5078691;28;19919;-68
2022/10/09 04:15:44;;;;;;;;;;;;;;;;;;5070938;28;19912;-68
2022/10/09 04:18:09;;;;;;;;;;;;;;;;;;5064151;28;20000;-67
2022/10/09 04:20:34;;;;;;;;;;;;;;;;;;5092021;28;20544;-68
2022/10/09 04:23:00;;;;;;;;;;;;;;;;;;5071689;28;19912;-69
2022/10/09 04:25:25;;;;;;;;;;;;;;;;;;5074404;28;20475;-69
2022/10/09 04:27:50;;;;;;;;;;;;;;;;;;5070986;28;19944;-68
2022/10/09 04:30:15;;;;;;;;;;;;;;;;;;5070372;28;19916;-68
2022/10/09 04:32:40;;;;;;;;;;;;;;;;;;5070865;28;19912;-68
2022/10/09 04:35:05;;;;;;;;;;;;;;;;;;5071514;28;19912;-68
2022/10/09 04:37:31;;;;;;;;;;;;;;;;;;5100107;28;19966;-68
2022/10/09 04:39:56;;;;;;;;;;;;;;;;;;5071132;28;19913;-68
2022/10/09 04:42:21;;;;;;;;;;;;;;;;;;5070805;28;19917;-69
2022/10/09 04:44:46;;;;;;;;;;;;;;;;;;5052171;28;19924;-68
2022/10/09 04:47:11;;;;;;;;;;;;;;;;;;5065624;28;19916;-68
2022/10/09 04:49:36;;;;;;;;;;;;;;;;;;5067544;28;19957;-67
2022/10/09 04:52:01;;;;;;;;;;;;;;;;;;5066628;28;19912;-67
2022/10/09 04:54:26;;;;;;;;;;;;;;;;;;5105022;28;20352;-68
2022/10/09 04:56:52;;;;;;;;;;;;;;;;;;5093598;28;20411;-66
2022/10/09 04:59:17;;;;;;;;;;;;;;;;;;5069409;28;19917;-68
2022/10/09 05:01:42;;;;;;;;;;;;;;;;;;5066600;28;19916;-67
2022/10/09 05:04:07;;;;;;;;;;;;;;;;;;5067219;28;19917;-67
2022/10/09 05:06:32;;;;;;;;;;;;;;;;;;5064068;28;19912;-67
2022/10/09 05:08:57;;;;;;;;;;;;;;;;;;5082498;28;19912;-67
2022/10/09 05:11:22;;;;;;;;;;;;;;;;;;5079456;28;19920;-67
2022/10/09 05:13:48;;;;;;;;;;;;;;;;;;5064183;28;20280;-67
2022/10/09 05:16:13;;;;;;;;;;;;;;;;;;5077636;28;20007;-66
2022/10/09 05:18:38;;;;;;;;;;;;;;;;;;5072000;28;20369;-68
2022/10/09 05:21:03;;;;;;;;;;;;;;;;;;5080568;28;20372;-67
2022/10/09 05:23:28;;;;;;;;;;;;;;;;;;5093375;28;20395;-67
2022/10/09 05:25:53;;;;;;;;;;;;;;;;;;5080459;28;19920;-67
2022/10/09 05:28:19;;;;;;;;;;;;;;;;;;5097927;28;19999;-68
2022/10/09 05:30:44;;;;;;;;;;;;;;;;;;5073155;28;19945;-68
2022/10/09 05:33:09;;;;;;;;;;;;;;;;;;5081948;28;19916;-68
2022/10/09 05:35:34;;;;;;;;;;;;;;;;;;5076741;28;20000;-68
2022/10/09 05:37:59;;;;;;;;;;;;;;;;;;5066825;28;19912;-67
2022/10/09 05:40:24;;;;;;;;;;;;;;;;;;5072658;28;19913;-67
2022/10/09 05:42:49;;;;;;;;;;;;;;;;;;5069464;28;19917;-68
2022/10/09 05:45:14;;;;;;;;;;;;;;;;;;5075003;28;19916;-67
2022/10/09 05:47:40;;;;;;;;;;;;;;;;;;5069915;28;20015;-68
2022/10/09 05:50:05;;;;;;;;;;;;;;;;;;5098907;28;19908;-67
2022/10/09 05:52:30;;;;;;;;;;;;;;;;;;5074151;28;19908;-68
2022/10/09 05:54:56;;;;;;;;;;;;;;;;;;5073330;28;20262;-68
2022/10/09 05:57:21;;;;;;;;;;;;;;;;;;5106892;28;19980;-68
2022/10/09 05:59:46;;;;;;;;;;;;;;;;;;5060394;28;19928;-68
2022/10/09 06:02:11;;;;;;;;;;;;;;;;;;5072581;28;20007;-67
2022/10/09 06:04:36;;;;;;;;;;;;;;;;;;5058494;28;19917;-68
2022/10/09 06:07:01;;;;;;;;;;;;;;;;;;5066010;28;19962;-66
2022/10/09 06:09:26;;;;;;;;;;;;;;;;;;5071340;28;19912;-68
2022/10/09 06:11:52;;;;;;;;;;;;;;;;;;5098130;28;19912;-67
2022/10/09 06:14:17;;;;;;;;;;;;;;;;;;5074335;28;19908;-69
2022/10/09 06:16:42;;;;;;;;;;;;;;;;;;5066813;28;19948;-69
2022/10/09 06:19:07;;;;;;;;;;;;;;;;;;5067605;28;19995;-69
2022/10/09 06:21:32;;;;;;;;;;;;;;;;;;5066600;28;19924;-69
2022/10/09 06:23:57;;;;;;;;;;;;;;;;;;5063295;28;19963;-68
2022/10/09 06:26:23;;;;;;;;;;;;;;;;;;5065061;28;19951;-69
2022/10/09 06:28:48;;;;;;;;;;;;;;;;;;5072144;28;19908;-70
2022/10/09 06:31:13;;;;;;;;;;;;;;;;;;5071814;28;19912;-70
2022/10/09 06:33:38;;;;;;;;;;;;;;;;;;5070350;28;20257;-69
2022/10/09 06:36:03;;;;;;;;;;;;;;;;;;5069854;28;20381;-69
2022/10/09 06:38:28;;;;;;;;;;;;;;;;;;5069951;28;20353;-70
2022/10/09 06:40:53;;;;;;;;;;;;;;;;;;5062990;28;20411;-69
2022/10/09 06:43:19;;;;;;;;;;;;;;;;;;5071364;28;20015;-70
2022/10/09 06:45:44;;;;;;;;;;;;;;;;;;5071659;28;19928;-70
2022/10/09 06:48:09;;;;;;;;;;;;;;;;;;5061283;28;19955;-70
2022/10/09 06:50:34;;;;;;;;;;;;;;;;;;5096799;28;19916;-69
2022/10/09 06:52:59;;;;;;;;;;;;;;;;;;5070000;28;19909;-69
2022/10/09 06:55:24;;;;;;;;;;;;;;;;;;5070144;28;19951;-69
2022/10/09 06:57:49;;;;;;;;;;;;;;;;;;5067846;28;20284;-70
2022/10/09 07:00:15;;;;;;;;;;;;;;;;;;5066338;28;20277;-69
2022/10/09 07:02:41;;;;;;;;;;;;;;;;;;5071320;28;20014;-70
2022/10/09 07:05:06;;;;;;;;;;;;;;;;;;5064927;28;19924;-69
2022/10/09 07:07:31;;;;;;;;;;;;;;;;;;5073300;28;20391;-70
2022/10/09 07:09:56;;;;;;;;;;;;;;;;;;5069758;28;19920;-69
2022/10/09 07:12:21;;;;;;;;;;;;;;;;;;5070144;28;19913;-69
2022/10/09 07:14:47;;;;;;;;;;;;;;;;;;5057851;28;19920;-70
2022/10/09 07:17:12;;;;;;;;;;;;;;;;;;5093093;28;19913;-70
2022/10/09 07:19:37;;;;;;;;;;;;;;;;;;5062316;28;19970;-70
2022/10/09 07:22:02;;;;;;;;;;;;;;;;;;5077178;28;19919;-70
2022/10/09 07:24:27;;;;;;;;;;;;;;;;;;5070929;28;19920;-69
2022/10/09 07:26:55;;;;;;;;;;;;;;;;;;5071396;28;19995;-70
2022/10/09 07:29:20;;;;;;;;;;;;;;;;;;5100696;28;19912;-70
2022/10/09 07:31:46;;;;;;;;;;;;;;;;;;5071789;28;19993;-69
2022/10/09 07:34:11;;;;;;;;;;;;;;;;;;5072823;28;19908;-69
2022/10/09 07:36:36;;;;;;;;;;;;;;;;;;5069913;28;19955;-70
2022/10/09 07:39:01;;;;;;;;;;;;;;;;;;5068395;28;19916;-69
2022/10/09 07:41:26;;;;;;;;;;;;;;;;;;5067536;28;19999;-69
2022/10/09 07:43:51;;;;;;;;;;;;;;;;;;5062499;28;19924;-70
2022/10/09 07:46:16;;;;;;;;;;;;;;;;;;5056036;28;19955;-70
2022/10/09 07:48:42;;;;;;;;;;;;;;;;;;5055169;28;19960;-68
2022/10/09 07:51:07;;;;;;;;;;;;;;;;;;5092702;28;19920;-69
2022/10/09 07:53:32;;;;;;;;;;;;;;;;;;5099874;28;19912;-70
2022/10/09 07:55:57;;;;;;;;;;;;;;;;;;5097435;28;19940;-70
2022/10/09 07:58:22;;;;;;;;;;;;;;;;;;5090982;28;19912;-69
2022/10/09 08:00:47;;;;;;;;;;;;;;;;;;5091505;28;19920;-70
2022/10/09 08:03:12;;;;;;;;;;;;;;;;;;5053538;28;19920;-70
2022/10/09 08:05:37;;;;;;;;;;;;;;;;;;5094117;28;19916;-70
2022/10/09 08:08:03;;;;;;;;;;;;;;;;;;5069763;28;19944;-70
2022/10/09 08:10:28;;;;;;;;;;;;;;;;;;5066395;28;19916;-69
2022/10/09 08:12:53;;;;;;;;;;;;;;;;;;5064598;28;19922;-70
2022/10/09 08:15:18;;;;;;;;;;;;;;;;;;5064191;28;19920;-71
2022/10/09 08:17:43;;;;;;;;;;;;;;;;;;5085113;28;19917;-70
2022/10/09 08:20:08;;;;;;;;;;;;;;;;;;5091006;28;20015;-70
2022/10/09 08:22:33;;;;;;;;;;;;;;;;;;5066328;28;19940;-76
2022/10/09 08:24:59;;;;;;;;;;;;;;;;;;5102884;28;20022;-69
2022/10/09 08:27:24;;;;;;;;;;;;;;;;;;5069441;28;19920;-70
2022/10/09 08:29:49;;;;;;;;;;;;;;;;;;5068594;28;19919;-70
2022/10/09 08:32:14;;;;;;;;;;;;;;;;;;5064206;28;19917;-70
2022/10/09 08:34:39;;;;;;;;;;;;;;;;;;5072038;28;19909;-70
2022/10/09 08:37:04;;;;;;;;;;;;;;;;;;5069414;28;19913;-70
2022/10/09 08:39:30;;;;;;;;;;;;;;;;;;5062283;28;19912;-72
2022/10/09 08:41:56;;;;;;;;;;;;;;;;;;5064723;28;19924;-70
2022/10/09 08:44:21;;;;;;;;;;;;;;;;;;5066965;28;20044;-71
2022/10/09 08:46:46;;;;;;;;;;;;;;;;;;5067487;28;20418;-70
2022/10/09 08:49:11;;;;;;;;;;;;;;;;;;5061268;28;19912;-69
2022/10/09 08:51:37;;;;;;;;;;;;;;;;;;5063192;28;19919;-69
2022/10/09 08:54:02;;;;;;;;;;;;;;;;;;5066819;28;19913;-69
2022/10/09 08:56:27;;;;;;;;;;;;;;;;;;5066189;28;20076;-70
2022/10/09 08:58:52;;;;;;;;;;;;;;;;;;5094862;28;20304;-73
2022/10/09 09:01:17;;;;;;;;;;;;;;;;;;5063655;28;20007;-72
2022/10/09 09:03:42;;;;;;;;;;;;;;;;;;5098583;28;20319;-72
2022/10/09 09:06:07;;;;;;;;;;;;;;;;;;5093060;28;19923;-72
2022/10/09 09:08:32;;;;;;;;;;;;;;;;;;5062730;28;19926;-72
2022/10/09 09:10:58;;;;;;;;;;;;;;;;;;5062825;28;19955;-72
2022/10/09 09:13:23;;;;;;;;;;;;;;;;;;5064692;28;20181;-73
2022/10/09 09:15:48;;;;;;;;;;;;;;;;;;5093894;28;19999;-72
2022/10/09 09:18:13;;;;;;;;;;;;;;;;;;5093952;28;19977;-70
2022/10/09 09:20:38;;;;;;;;;;;;;;;;;;5060584;28;20380;-71
2022/10/09 09:23:03;;;;;;;;;;;;;;;;;;5097368;28;19974;-70
2022/10/09 09:25:29;;;;;;;;;;;;;;;;;;5064270;28;20284;-72
2022/10/09 09:27:54;;;;;;;;;;;;;;;;;;5068367;28;20003;-72
2022/10/09 09:30:19;;;;;;;;;;;;;;;;;;5067117;28;19960;-71
2022/10/09 09:32:44;;;;;;;;;;;;;;;;;;5068060;28;19913;-71
2022/10/09 09:35:09;;;;;;;;;;;;;;;;;;5099136;27;19916;-71
2022/10/09 09:37:36;;;;;;;;;;;;;;;;;;5099579;28;19912;-72
2022/10/09 09:40:02;;;;;;;;;;;;;;;;;;5065700;28;19916;-72
2022/10/09 09:42:27;;;;;;;;;;;;;;;;;;5066654;28;19920;-73
2022/10/09 09:44:52;;;;;;;;;;;;;;;;;;5065685;28;20404;-72
2022/10/09 09:47:17;;;;;;;;;;;;;;;;;;5067578;28;20257;-72
2022/10/09 09:49:42;;;;;;;;;;;;;;;;;;5063822;28;20349;-71
2022/10/09 09:52:08;;;;;;;;;;;;;;;;;;5068379;28;20381;-71
2022/10/09 09:54:33;;;;;;;;;;;;;;;;;;5070386;28;19913;-71
2022/10/09 09:56:59;;;;;;;;;;;;;;;;;;5070806;28;20273;-71
2022/10/09 09:59:24;;;;;;;;;;;;;;;;;;5069587;28;19920;-71
2022/10/09 10:01:50;;;;;;;;;;;;;;;;;;5103838;28;19913;-71
2022/10/09 10:04:15;;;;;;;;;;;;;;;;;;5071216;28;19917;-72
2022/10/09 10:06:40;;;;;;;;;;;;;;;;;;5099461;28;20033;-71
2022/10/09 10:09:05;;;;;;;;;;;;;;;;;;5062927;28;20090;-72
2022/10/09 10:11:30;;;;;;;;;;;;;;;;;;5101069;28;19920;-72
2022/10/09 10:13:55;;;;;;;;;;;;;;;;;;5086013;28;19917;-72
2022/10/09 10:16:20;;;;;;;;;;;;;;;;;;5068095;28;19913;-71
2022/10/09 10:18:45;;;;;;;;;;;;;;;;;;5065052;28;19921;-70
2022/10/09 10:21:11;;;;;;;;;;;;;;;;;;5095952;28;19921;-71
2022/10/09 10:23:36;;;;;;;;;;;;;;;;;;5070131;28;20422;-71
2022/10/09 10:26:01;;;;;;;;;;;;;;;;;;5064793;28;19924;-72
2022/10/09 10:28:26;;;;;;;;;;;;;;;;;;5071304;28;19943;-72
2022/10/09 10:30:51;;;;;;;;;;;;;;;;;;5069094;28;20011;-72
2022/10/09 10:33:17;;;;;;;;;;;;;;;;;;5069131;28;19925;-71
2022/10/09 10:35:42;;;;;;;;;;;;;;;;;;5073487;28;19916;-71
2022/10/09 10:38:07;;;;;;;;;;;;;;;;;;5065928;28;20356;-72
2022/10/09 10:40:32;;;;;;;;;;;;;;;;;;5067641;28;19912;-72
2022/10/09 10:42:57;;;;;;;;;;;;;;;;;;5063358;28;19912;-72
2022/10/09 10:45:23;;;;;;;;;;;;;;;;;;5103479;27;19921;-72
2022/10/09 10:47:48;;;;;;;;;;;;;;;;;;5068290;28;19913;-72
2022/10/09 10:50:13;;;;;;;;;;;;;;;;;;5092623;28;19920;-71
2022/10/09 10:52:38;;;;;;;;;;;;;;;;;;5091232;28;19916;-71
2022/10/09 10:55:03;;;;;;;;;;;;;;;;;;5061935;28;19967;-72
2022/10/09 10:57:28;;;;;;;;;;;;;;;;;;5062275;28;19912;-71
2022/10/09 10:59:53;;;;;;;;;;;;;;;;;;5060082;28;20419;-73
2022/10/09 11:02:19;;;;;;;;;;;;;;;;;;5089828;28;19920;-72
2022/10/09 11:04:44;;;;;;;;;;;;;;;;;;5090406;28;20038;-72
2022/10/09 11:07:10;;;;;;;;;;;;;;;;;;5092317;28;21420;-72
2022/10/09 11:09:35;;;;;;;;;;;;;;;;;;5095398;28;19927;-73
2022/10/09 11:12:00;;;;;;;;;;;;;;;;;;5054571;28;20381;-72
2022/10/09 11:14:25;;;;;;;;;;;;;;;;;;5078909;28;19917;-71
2022/10/09 11:16:50;;;;;;;;;;;;;;;;;;5071967;28;19912;-72
2022/10/09 11:19:15;;;;;;;;;;;;;;;;;;5067556;28;19928;-72
2022/10/09 11:21:41;;;;;;;;;;;;;;;;;;5067094;28;20293;-72
2022/10/09 11:24:06;;;;;;;;;;;;;;;;;;5062021;28;20448;-73
2022/10/09 11:26:31;;;;;;;;;;;;;;;;;;5088354;28;19920;-71
2022/10/09 11:28:56;;;;;;;;;;;;;;;;;;5057720;28;19917;-75
2022/10/09 11:31:21;;;;;;;;;;;;;;;;;;5055881;28;19920;-71
2022/10/09 11:33:47;;;;;;;;;;;;;;;;;;5059412;28;19920;-71
2022/10/09 11:36:12;;;;;;;;;;;;;;;;;;5088183;28;19978;-72
2022/10/09 11:38:37;;;;;;;;;;;;;;;;;;5090108;28;19920;-72
2022/10/09 11:41:02;;;;;;;;;;;;;;;;;;5054702;28;19912;-73
2022/10/09 11:43:27;;;;;;;;;;;;;;;;;;5065026;28;19913;-72
2022/10/09 11:45:53;;;;;;;;;;;;;;;;;;5053881;28;20361;-73
2022/10/09 11:48:18;;;;;;;;;;;;;;;;;;5084533;28;20005;-71
2022/10/09 11:50:43;;;;;;;;;;;;;;;;;;5088270;28;19946;-71
2022/10/09 11:53:08;;;;;;;;;;;;;;;;;;5094751;28;19920;-72
2022/10/09 11:55:34;;;;;;;;;;;;;;;;;;5096264;28;20058;-71
2022/10/09 11:57:59;;;;;;;;;;;;;;;;;;5067349;28;19920;-72
2022/10/09 12:00:24;;;;;;;;;;;;;;;;;;5069747;28;19919;-71
2022/10/09 12:02:49;;;;;;;;;;;;;;;;;;5067831;28;19961;-72
2022/10/09 12:05:14;;;;;;;;;;;;;;;;;;5096660;27;20078;-74
2022/10/09 12:07:39;;;;;;;;;;;;;;;;;;5065854;28;20365;-72
2022/10/09 12:10:04;;;;;;;;;;;;;;;;;;5067123;28;19913;-74
2022/10/09 12:12:29;;;;;;;;;;;;;;;;;;5070697;28;19919;-71
2022/10/09 12:14:55;;;;;;;;;;;;;;;;;;5068133;28;19912;-73
2022/10/09 12:17:20;;;;;;;;;;;;;;;;;;5071804;28;19938;-72
2022/10/09 12:19:45;;;;;;;;;;;;;;;;;;5067479;28;20303;-72
2022/10/09 12:22:10;;;;;;;;;;;;;;;;;;5078172;28;19909;-73
2022/10/09 12:24:35;;;;;;;;;;;;;;;;;;5073722;28;19919;-69
2022/10/09 12:27:02;;;;;;;;;;;;;;;;;;5075817;28;19912;-70
2022/10/09 12:29:27;;;;;;;;;;;;;;;;;;5099984;28;19920;-73
2022/10/09 12:31:52;;;;;;;;;;;;;;;;;;5079283;28;19915;-72
2022/10/09 12:34:18;;;;;;;;;;;;;;;;;;5071704;28;19920;-73
2022/10/09 12:36:43;;;;;;;;;;;;;;;;;;5070981;28;19913;-73
2022/10/09 12:39:08;;;;;;;;;;;;;;;;;;5070421;28;19936;-73
2022/10/09 12:41:33;;;;;;;;;;;;;;;;;;5097629;28;19913;-72
2022/10/09 12:43:58;;;;;;;;;;;;;;;;;;5064041;28;19927;-72
2022/10/09 12:46:24;;;;;;;;;;;;;;;;;;5073199;28;19920;-74
2022/10/09 12:48:49;;;;;;;;;;;;;;;;;;5067096;28;20274;-72
2022/10/09 12:51:14;;;;;;;;;;;;;;;;;;5066123;28;19966;-73
2022/10/09 12:53:39;;;;;;;;;;;;;;;;;;5098300;28;19920;-72
2022/10/09 12:56:04;;;;;;;;;;;;;;;;;;5097905;28;19919;-72
2022/10/09 12:58:29;;;;;;;;;;;;;;;;;;5097390;28;20011;-73
2022/10/09 13:00:54;;;;;;;;;;;;;;;;;;5100632;28;19908;-74
2022/10/09 13:03:20;;;;;;;;;;;;;;;;;;5102685;28;19913;-72
2022/10/09 13:05:45;;;;;;;;;;;;;;;;;;5066947;28;19916;-73
2022/10/09 13:08:10;;;;;;;;;;;;;;;;;;5071341;28;19919;-73
2022/10/09 13:10:35;;;;;;;;;;;;;;;;;;5101091;28;20003;-73
2022/10/09 13:13:00;;;;;;;;;;;;;;;;;;5070226;28;19917;-73
2022/10/09 13:15:25;;;;;;;;;;;;;;;;;;5067675;28;19912;-73
2022/10/09 13:17:50;;;;;;;;;;;;;;;;;;5072168;28;19917;-72
2022/10/09 13:20:15;;;;;;;;;;;;;;;;;;5068110;28;19928;-73
2022/10/09 13:22:41;;;;;;;;;;;;;;;;;;5105129;28;19916;-72
2022/10/09 13:25:06;;;;;;;;;;;;;;;;;;5071273;28;19924;-72
2022/10/09 13:27:31;;;;;;;;;;;;;;;;;;5067130;28;19912;-73
2022/10/09 13:29:56;;;;;;;;;;;;;;;;;;5069418;28;19921;-71
2022/10/09 13:32:23;;;;;;;;;;;;;;;;;;5070459;28;20387;-72
2022/10/09 13:34:48;;;;;;;;;;;;;;;;;;5073109;28;19952;-71
2022/10/09 13:37:13;;;;;;;;;;;;;;;;;;5064800;28;19959;-73
2022/10/09 13:39:38;;;;;;;;;;;;;;;;;;5068367;28;19913;-71
2022/10/09 13:42:03;;;;;;;;;;;;;;;;;;5069772;28;19913;-70
2022/10/09 13:44:28;;;;;;;;;;;;;;;;;;5071201;28;19961;-71
2022/10/09 13:46:53;;;;;;;;;;;;;;;;;;5072783;28;20284;-71
2022/10/09 13:49:19;;;;;;;;;;;;;;;;;;5065384;28;20412;-73
2022/10/09 13:51:44;;;;;;;;;;;;;;;;;;5065948;28;19912;-71
2022/10/09 13:54:09;;;;;;;;;;;;;;;;;;5070531;28;19966;-71
2022/10/09 13:56:34;;;;;;;;;;;;;;;;;;5070307;28;19909;-72
2022/10/09 13:58:59;;;;;;;;;;;;;;;;;;5069521;28;19921;-72
2022/10/09 14:01:24;;;;;;;;;;;;;;;;;;5070519;28;19913;-72
2022/10/09 14:03:49;;;;;;;;;;;;;;;;;;5069800;28;19919;-71
2022/10/09 14:06:14;;;;;;;;;;;;;;;;;;5071903;28;20015;-71
2022/10/09 14:08:40;;;;;;;;;;;;;;;;;;5071284;28;19924;-72
2022/10/09 14:11:05;;;;;;;;;;;;;;;;;;5096044;28;20343;-72
2022/10/09 14:13:30;;;;;;;;;;;;;;;;;;5069737;28;20384;-71
2022/10/09 14:15:55;;;;;;;;;;;;;;;;;;5072417;28;20338;-71
2022/10/09 14:18:20;;;;;;;;;;;;;;;;;;5103916;28;19913;-71
2022/10/09 14:20:45;;;;;;;;;;;;;;;;;;5067201;28;20003;-69
2022/10/09 14:23:12;;;;;;;;;;;;;;;;;;5069028;28;19982;-71
2022/10/09 14:25:37;;;;;;;;;;;;;;;;;;5070878;28;20300;-72
2022/10/09 14:28:02;;;;;;;;;;;;;;;;;;5066988;28;19914;-72
2022/10/09 14:30:27;;;;;;;;;;;;;;;;;;5069015;28;19979;-72
2022/10/09 14:32:54;;;;;;;;;;;;;;;;;;5094707;28;19935;-73
2022/10/09 14:35:19;;;;;;;;;;;;;;;;;;5070938;28;20401;-72
2022/10/09 14:37:44;;;;;;;;;;;;;;;;;;5068426;28;19955;-72
2022/10/09 14:40:09;;;;;;;;;;;;;;;;;;5068213;28;19920;-72
2022/10/09 14:42:34;;;;;;;;;;;;;;;;;;5068238;28;20391;-71
2022/10/09 14:44:59;;;;;;;;;;;;;;;;;;5067013;28;19916;-71
2022/10/09 14:47:24;;;;;;;;;;;;;;;;;;5070282;28;20012;-71
2022/10/09 14:49:49;;;;;;;;;;;;;;;;;;5063276;28;19912;-72
2022/10/09 14:52:15;;;;;;;;;;;;;;;;;;5068734;28;19939;-72
2022/10/09 14:54:40;;;;;;;;;;;;;;;;;;5066407;28;19912;-72
2022/10/09 14:57:05;;;;;;;;;;;;;;;;;;5069614;28;20426;-71
2022/10/09 14:59:30;;;;;;;;;;;;;;;;;;5072024;28;19912;-72
2022/10/09 15:01:55;;;;;;;;;;;;;;;;;;5066064;28;20300;-71
2022/10/09 15:04:21;;;;;;;;;;;;;;;;;;5065793;28;20372;-72
2022/10/09 15:06:46;;;;;;;;;;;;;;;;;;5097796;28;19923;-70
2022/10/09 15:09:11;;;;;;;;;;;;;;;;;;5069606;28;20000;-72
2022/10/09 15:11:36;;;;;;;;;;;;;;;;;;5076741;28;20374;-71
2022/10/09 15:14:01;;;;;;;;;;;;;;;;;;5070179;28;20440;-71
2022/10/09 15:16:26;;;;;;;;;;;;;;;;;;5067612;28;20444;-72
2022/10/09 15:18:51;;;;;;;;;;;;;;;;;;5063900;28;20638;-71
2022/10/09 15:21:17;;;;;;;;;;;;;;;;;;5066198;28;19928;-72
2022/10/09 15:23:42;;;;;;;;;;;;;;;;;;5067442;28;19917;-72
2022/10/09 15:26:09;;;;;;;;;;;;;;;;;;5065381;28;20135;-72
2022/10/09 15:28:34;;;;;;;;;;;;;;;;;;5068359;28;19912;-72
2022/10/09 15:30:59;;;;;;;;;;;;;;;;;;5067254;28;20325;-72
2022/10/09 15:33:24;;;;;;;;;;;;;;;;;;5060923;28;20377;-73
2022/10/09 15:35:50;;;;;;;;;;;;;;;;;;5065729;28;19918;-71
2022/10/09 15:38:15;;;;;;;;;;;;;;;;;;5068225;28;20361;-70
2022/10/09 15:40:40;;;;;;;;;;;;;;;;;;5060126;28;19920;-70
2022/10/09 15:43:05;;;;;;;;;;;;;;;;;;5062994;28;20373;-72
2022/10/09 15:45:31;;;;;;;;;;;;;;;;;;5069545;28;20285;-71
2022/10/09 15:47:56;;;;;;;;;;;;;;;;;;5062634;28;19920;-71
2022/10/09 15:50:21;;;;;;;;;;;;;;;;;;5061808;28;19942;-71
2022/10/09 15:52:46;;;;;;;;;;;;;;;;;;5060724;28;19971;-71
2022/10/09 15:55:11;;;;;;;;;;;;;;;;;;5095181;28;19912;-71
2022/10/09 15:57:36;;;;;;;;;;;;;;;;;;5092004;28;19966;-70
2022/10/09 16:00:02;;;;;;;;;;;;;;;;;;5070678;28;19943;-72
2022/10/09 16:02:27;;;;;;;;;;;;;;;;;;5093096;28;19917;-71
2022/10/09 16:04:52;;;;;;;;;;;;;;;;;;5088350;28;19916;-71
2022/10/09 16:07:17;;;;;;;;;;;;;;;;;;5059729;28;20436;-71
2022/10/09 16:09:42;;;;;;;;;;;;;;;;;;5057577;28;20307;-71
2022/10/09 16:12:08;;;;;;;;;;;;;;;;;;5057336;28;19921;-71
2022/10/09 16:14:33;;;;;;;;;;;;;;;;;;5093955;28;19913;-72
2022/10/09 16:16:58;;;;;;;;;;;;;;;;;;5060679;28;19921;-73
2022/10/09 16:19:23;;;;;;;;;;;;;;;;;;5091230;28;19924;-72
2022/10/09 16:21:48;;;;;;;;;;;;;;;;;;5057520;28;19947;-73
2022/10/09 16:24:13;;;;;;;;;;;;;;;;;;5057339;28;20398;-72
2022/10/09 16:26:38;;;;;;;;;;;;;;;;;;5060415;28;19913;-71
2022/10/09 16:29:03;;;;;;;;;;;;;;;;;;5059067;28;19913;-71
2022/10/09 16:31:29;;;;;;;;;;;;;;;;;;5056044;28;19917;-71